createdAt,value
2023-03-15T00:00:38.557Z,101022.91
2023-03-15T00:05:42.969Z,101034.66
2023-03-15T00:10:46.757Z,101035.28
2023-03-15T00:15:55.982Z,101036.03
2023-03-15T00:20:57.995Z,101043.47
2023-03-15T00:25:59.536Z,101046.91
2023-03-15T00:31:13.201Z,101050.22
2023-03-15T00:36:15.385Z,101066.16
2023-03-15T00:41:19.522Z,101078.88
2023-03-15T00:46:21.153Z,101086.53
2023-03-15T00:51:24.388Z,101092.91
2023-03-15T00:56:27.858Z,101101.06
2023-03-15T01:01:30.090Z,101103.88
2023-03-15T01:06:31.672Z,101113.47
2023-03-15T01:11:33.181Z,101109.41
2023-03-15T01:16:34.805Z,101116.16
2023-03-15T01:21:36.342Z,101113.19
2023-03-15T01:26:37.818Z,101139.13
2023-03-15T01:31:39.741Z,101132.56
2023-03-15T01:36:41.288Z,101145.03
2023-03-15T01:41:42.858Z,101154.19
2023-03-15T01:46:44.677Z,101169.38
2023-03-15T01:51:53.244Z,101171.84
2023-03-15T01:57:00.923Z,101180.25
2023-03-15T02:02:04.699Z,101176.50
2023-03-15T02:07:07.683Z,101188.13
2023-03-15T02:12:10.731Z,101193.53
2023-03-15T02:17:12.460Z,101194.69
2023-03-15T02:22:40.829Z,101198.88
2023-03-15T02:27:42.285Z,101214.59
2023-03-15T02:32:44.010Z,101215.53
2023-03-15T02:37:45.912Z,101225.09
2023-03-15T02:42:51.176Z,101226.38
2023-03-15T02:47:53.409Z,101231.38
2023-03-15T02:52:54.872Z,101246.31
2023-03-15T02:57:56.795Z,101254.63
2023-03-15T03:02:58.696Z,101274.22
2023-03-15T03:08:00.184Z,101273.09
2023-03-15T03:13:01.712Z,101290.19
2023-03-15T03:18:03.613Z,101293.63
2023-03-15T03:23:06.205Z,101303.34
2023-03-15T03:28:07.890Z,101316.50
2023-03-15T03:33:09.423Z,101325.63
2023-03-15T03:38:11.844Z,101343.09
2023-03-15T03:43:13.305Z,101364.50
2023-03-15T03:48:14.829Z,101366.50
2023-03-15T03:53:16.408Z,101382.34
2023-03-15T03:58:17.933Z,101381.47
2023-03-15T04:03:19.690Z,101397.47
2023-03-15T04:08:21.803Z,101414.31
2023-03-15T04:13:24.742Z,101426.91
2023-03-15T04:18:26.293Z,101446.72
2023-03-15T04:23:27.798Z,101451.03
2023-03-15T04:28:30.309Z,101448.00
2023-03-15T04:33:32.149Z,101427.91
2023-03-15T04:38:35.515Z,101439.63
2023-03-15T04:43:37.075Z,101439.94
2023-03-15T04:48:38.635Z,101426.19
2023-03-15T04:53:40.154Z,101427.34
2023-03-15T04:58:41.696Z,101438.09
2023-03-15T05:03:43.166Z,101442.13
2023-03-15T05:08:45.400Z,101441.34
2023-03-15T05:13:47.027Z,101445.84
2023-03-15T05:18:48.525Z,101457.00
2023-03-15T05:23:50.054Z,101461.19
2023-03-15T05:28:52.447Z,101476.91
2023-03-15T05:33:54.434Z,101479.28
2023-03-15T05:38:55.979Z,101483.25
2023-03-15T05:43:57.860Z,101490.34
2023-03-15T05:48:59.397Z,101496.88
2023-03-15T05:54:00.909Z,101504.91
2023-03-15T05:59:03.677Z,101521.41
2023-03-15T06:04:05.369Z,101522.41
2023-03-15T06:09:06.952Z,101538.47
2023-03-15T06:14:08.500Z,101558.34
2023-03-15T06:19:10.050Z,101555.97
2023-03-15T06:24:11.516Z,101566.22
2023-03-15T06:29:13.105Z,101568.34
2023-03-15T06:34:14.585Z,101590.19
2023-03-15T06:39:16.285Z,101599.19
2023-03-15T06:44:17.817Z,101604.38
2023-03-15T06:49:19.352Z,101619.75
2023-03-15T06:54:20.887Z,101630.34
2023-03-15T06:59:22.763Z,101621.94
2023-03-15T07:04:24.303Z,101629.78
2023-03-15T07:09:25.959Z,101631.41
2023-03-15T07:14:27.527Z,101644.59
2023-03-15T07:19:29.054Z,101654.44
2023-03-15T07:24:30.709Z,101648.94
2023-03-15T07:29:32.480Z,101654.09
2023-03-15T07:34:34.021Z,101654.88
2023-03-15T07:39:35.509Z,101663.28
2023-03-15T07:44:37.055Z,101666.72
2023-03-15T07:49:38.565Z,101675.31
2023-03-15T07:54:40.077Z,101691.91
2023-03-15T07:59:41.753Z,101693.13
2023-03-15T08:04:43.309Z,101705.03
2023-03-15T08:09:44.938Z,101697.91
2023-03-15T08:14:46.513Z,101699.03
2023-03-15T08:19:48.073Z,101711.81
2023-03-15T08:24:53.290Z,101718.19
2023-03-15T08:29:54.844Z,101727.75
2023-03-15T08:34:56.389Z,101721.06
2023-03-15T08:40:09.660Z,101727.88
2023-03-15T08:45:11.661Z,101728.69
2023-03-15T08:50:15.480Z,101734.28
2023-03-15T08:55:17.679Z,101748.75
2023-03-15T09:00:23.256Z,101744.44
2023-03-15T09:05:25.640Z,101743.88
2023-03-15T09:10:27.197Z,101748.31
2023-03-15T09:15:28.728Z,101751.44
2023-03-15T09:20:31.817Z,101756.25
2023-03-15T09:25:33.397Z,101742.19
2023-03-15T09:30:36.616Z,101750.16
2023-03-15T09:35:38.191Z,101757.69
2023-03-15T09:40:44.597Z,101757.69
2023-03-15T09:46:08.098Z,101760.66
2023-03-15T09:51:25.098Z,101763.53
2023-03-15T09:56:36.592Z,101777.44
2023-03-15T10:01:40.888Z,101776.94
2023-03-15T10:06:49.449Z,101790.19
2023-03-15T10:12:15.631Z,101788.56
2023-03-15T10:17:31.065Z,101784.72
2023-03-15T10:22:40.793Z,101785.81
2023-03-15T10:28:21.116Z,101775.97
2023-03-15T10:33:36.940Z,101789.50
2023-03-15T10:38:39.262Z,101794.41
2023-03-15T10:43:41.611Z,101819.13
2023-03-15T10:48:58.640Z,101821.50
2023-03-15T10:54:05.624Z,101822.34
2023-03-15T10:59:17.259Z,101818.78
2023-03-15T11:04:21.413Z,101827.06
2023-03-15T11:09:25.562Z,101829.91
2023-03-15T11:14:42.003Z,101835.47
2023-03-15T11:19:53.891Z,101831.81
2023-03-15T11:24:55.906Z,101841.56
2023-03-15T11:30:01.783Z,101842.00
2023-03-15T11:35:07.657Z,101847.34
2023-03-15T11:40:25.269Z,101853.09
2023-03-15T11:45:51.195Z,101843.03
2023-03-15T11:50:54.915Z,101833.94
2023-03-15T11:55:58.594Z,101840.69
2023-03-15T12:01:06.145Z,101833.78
2023-03-15T12:06:12.464Z,101846.78
2023-03-15T12:11:33.806Z,101832.91
2023-03-15T12:16:42.524Z,101846.03
2023-03-15T12:21:49.244Z,101846.13
2023-03-15T12:27:01.103Z,101841.44
2023-03-15T12:32:02.567Z,101845.19
2023-03-15T12:37:13.378Z,101841.38
2023-03-15T12:42:33.175Z,101852.78
2023-03-15T12:47:47.432Z,101851.63
2023-03-15T12:52:53.510Z,101846.34
2023-03-15T12:57:57.961Z,101843.31
2023-03-15T13:03:06.288Z,101834.41
2023-03-15T13:08:21.985Z,101825.25
2023-03-15T13:13:38.771Z,101832.06
2023-03-15T13:18:54.265Z,101828.16
2023-03-15T13:23:59.073Z,101828.78
2023-03-15T13:29:10.062Z,101818.09
2023-03-15T13:34:24.352Z,101823.63
2023-03-15T13:39:28.934Z,101820.66
2023-03-15T13:44:31.731Z,101826.94
2023-03-15T13:49:34.145Z,101831.25
2023-03-15T13:54:35.999Z,101836.19
2023-03-15T13:59:46.590Z,101838.19
2023-03-15T14:05:01.706Z,101833.34
2023-03-15T14:10:23.951Z,101836.47
2023-03-15T14:15:41.440Z,101836.19
2023-03-15T14:20:44.597Z,101843.13
2023-03-15T14:25:55.168Z,101840.28
2023-03-15T14:30:58.509Z,101842.50
2023-03-15T14:36:03.851Z,101845.59
2023-03-15T14:41:22.692Z,101834.63
2023-03-15T14:46:24.223Z,101834.50
2023-03-15T14:51:28.425Z,101833.50
2023-03-15T14:56:29.955Z,101827.31
2023-03-15T15:01:32.685Z,101821.75
2023-03-15T15:06:36.796Z,101824.47
2023-03-15T15:11:38.340Z,101819.19
2023-03-15T15:16:40.411Z,101812.03
2023-03-15T15:21:43.604Z,101809.19
2023-03-15T15:26:45.512Z,101810.28
2023-03-15T15:31:47.084Z,101799.78
2023-03-15T15:36:48.753Z,101797.19
2023-03-15T15:41:50.602Z,101802.13
2023-03-15T15:46:52.567Z,101803.75
2023-03-15T15:51:54.186Z,101796.09
2023-03-15T15:56:57.612Z,101794.75
2023-03-15T16:02:02.033Z,101798.69
2023-03-15T16:07:04.230Z,101793.00
2023-03-15T16:12:17.800Z,101800.91
2023-03-15T16:17:22.145Z,101804.63
2023-03-15T16:22:24.003Z,101793.25
2023-03-15T16:27:27.223Z,101803.63
2023-03-15T16:32:42.893Z,101807.56
2023-03-15T16:37:46.184Z,101822.09
2023-03-15T16:42:49.317Z,101810.16
2023-03-15T16:47:51.471Z,101805.56
2023-03-15T16:52:55.375Z,101822.94
2023-03-15T16:57:57.223Z,101823.31
2023-03-15T17:03:00.088Z,101817.50
2023-03-15T17:08:02.031Z,101827.22
2023-03-15T17:13:03.600Z,101818.09
2023-03-15T17:18:13.639Z,101825.97
2023-03-15T17:23:15.996Z,101827.41
2023-03-15T17:28:17.804Z,101820.09
2023-03-15T17:33:19.637Z,101819.34
2023-03-15T17:38:33.708Z,101818.28
2023-03-15T17:43:36.768Z,101816.28
2023-03-15T17:48:38.853Z,101826.38
2023-03-15T17:53:40.842Z,101823.63
2023-03-15T17:58:46.877Z,101828.84
2023-03-15T18:03:50.313Z,101835.38
2023-03-15T18:08:52.340Z,101838.94
2023-03-15T18:13:54.807Z,101841.03
2023-03-15T18:18:56.513Z,101843.00
2023-03-15T18:23:58.212Z,101843.84
2023-03-15T18:28:59.808Z,101847.09
2023-03-15T18:34:03.477Z,101851.66
2023-03-15T18:39:06.369Z,101857.47
2023-03-15T18:44:10.263Z,101852.06
2023-03-15T18:49:11.854Z,101852.16
2023-03-15T18:54:13.519Z,101843.63
2023-03-15T18:59:14.990Z,101843.50
2023-03-15T19:04:16.563Z,101842.22
2023-03-15T19:09:18.114Z,101846.53
2023-03-15T19:14:19.726Z,101853.91
2023-03-15T19:19:21.300Z,101846.53
2023-03-15T19:24:22.992Z,101833.91
2023-03-15T19:29:24.553Z,101845.97
2023-03-15T19:34:26.039Z,101832.69
2023-03-15T19:39:27.504Z,101838.19
2023-03-15T19:44:30.831Z,101839.94
2023-03-15T19:49:32.328Z,101824.91
2023-03-15T19:54:34.152Z,101832.22
2023-03-15T19:59:39.923Z,101824.34
2023-03-15T20:04:41.645Z,101821.84
2023-03-15T20:09:43.344Z,101819.16
2023-03-15T20:14:44.903Z,101820.66
2023-03-15T20:19:46.922Z,101827.06
2023-03-15T20:24:48.405Z,101828.22
2023-03-15T20:29:49.919Z,101822.72
2023-03-15T20:34:57.134Z,101820.00
2023-03-15T20:39:58.673Z,101821.31
2023-03-15T20:45:00.203Z,101819.25
2023-03-15T20:50:02.249Z,101810.19
2023-03-15T20:55:05.809Z,101818.38
2023-03-15T21:00:12.757Z,101816.13
2023-03-15T21:05:16.340Z,101805.09
2023-03-15T21:10:18.017Z,101797.63
2023-03-15T21:15:20.354Z,101798.72
2023-03-15T21:20:22.265Z,101789.31
2023-03-15T21:25:24.103Z,101791.03
2023-03-15T21:30:26.268Z,101776.44
2023-03-15T21:35:28.027Z,101760.75
2023-03-15T21:40:29.669Z,101771.56
2023-03-15T21:45:31.393Z,101764.19
2023-03-15T21:50:33.240Z,101764.31
2023-03-15T21:55:34.812Z,101763.91
2023-03-15T22:00:36.541Z,101752.44
2023-03-15T22:05:39.746Z,101754.56
2023-03-15T22:10:41.266Z,101744.41
2023-03-15T22:15:42.764Z,101748.72
2023-03-15T22:20:47.639Z,101742.34
2023-03-15T22:25:50.255Z,101733.59
2023-03-15T22:30:52.343Z,101732.63
2023-03-15T22:35:58.517Z,101746.25
2023-03-15T22:41:02.277Z,101732.72
2023-03-15T22:46:04.152Z,101732.19
2023-03-15T22:51:08.189Z,101732.88
2023-03-15T22:56:09.675Z,101727.47
2023-03-15T23:01:11.266Z,101732.84
2023-03-15T23:06:12.838Z,101724.94
2023-03-15T23:11:14.415Z,101716.16
2023-03-15T23:16:17.349Z,101718.38
2023-03-15T23:21:18.971Z,101702.34
2023-03-15T23:26:20.777Z,101702.22
2023-03-15T23:31:22.336Z,101703.09
2023-03-15T23:36:23.869Z,101710.47
2023-03-15T23:41:25.513Z,101718.78
2023-03-15T23:46:27.112Z,101713.25
2023-03-15T23:51:28.704Z,101707.63
2023-03-15T23:56:30.498Z,101707.44
